sensor_id;sensor_type;location;lat;lon;timestamp;P1;durP1;ratioP1;P2;durP2;ratioP2
24467;SDS011;12634;50.852;5.676;2023-07-22T00:01:01;16.75;;;8.77;;
24467;SDS011;12634;50.852;5.676;2023-07-22T00:03:28;16.38;;;8.50;;
24467;SDS011;12634;50.852;5.676;2023-07-22T00:06:02;14.52;;;8.32;;
24467;SDS011;12634;50.852;5.676;2023-07-22T00:08:31;11.95;;;7.97;;
24467;SDS011;12634;50.852;5.676;2023-07-22T00:10:59;9.88;;;7.45;;
24467;SDS011;12634;50.852;5.676;2023-07-22T00:13:26;11.95;;;8.50;;
24467;SDS011;12634;50.852;5.676;2023-07-22T00:15:54;11.65;;;7.70;;
24467;SDS011;12634;50.852;5.676;2023-07-22T00:18:24;11.70;;;7.28;;
24467;SDS011;12634;50.852;5.676;2023-07-22T00:20:52;13.02;;;7.88;;
24467;SDS011;12634;50.852;5.676;2023-07-22T00:23:20;12.00;;;8.18;;
24467;SDS011;12634;50.852;5.676;2023-07-22T00:25:47;15.02;;;8.27;;
24467;SDS011;12634;50.852;5.676;2023-07-22T00:28:16;12.98;;;8.05;;
24467;SDS011;12634;50.852;5.676;2023-07-22T00:30:43;11.95;;;7.10;;
24467;SDS011;12634;50.852;5.676;2023-07-22T00:33:10;12.30;;;6.90;;
24467;SDS011;12634;50.852;5.676;2023-07-22T00:35:39;11.43;;;7.68;;
24467;SDS011;12634;50.852;5.676;2023-07-22T00:38:06;11.18;;;7.20;;
24467;SDS011;12634;50.852;5.676;2023-07-22T00:40:34;11.90;;;7.43;;
24467;SDS011;12634;50.852;5.676;2023-07-22T00:43:02;12.68;;;7.15;;
24467;SDS011;12634;50.852;5.676;2023-07-22T00:45:33;11.35;;;7.00;;
24467;SDS011;12634;50.852;5.676;2023-07-22T00:48:01;13.13;;;7.05;;
24467;SDS011;12634;50.852;5.676;2023-07-22T00:50:31;9.90;;;7.00;;
24467;SDS011;12634;50.852;5.676;2023-07-22T00:52:59;11.90;;;7.63;;
24467;SDS011;12634;50.852;5.676;2023-07-22T00:55:27;12.77;;;7.10;;
24467;SDS011;12634;50.852;5.676;2023-07-22T00:57:54;9.27;;;7.10;;
24467;SDS011;12634;50.852;5.676;2023-07-22T01:00:22;14.98;;;8.00;;
24467;SDS011;12634;50.852;5.676;2023-07-22T01:02:50;9.68;;;7.00;;
24467;SDS011;12634;50.852;5.676;2023-07-22T01:05:18;10.52;;;6.93;;
24467;SDS011;12634;50.852;5.676;2023-07-22T01:07:45;12.45;;;7.32;;
24467;SDS011;12634;50.852;5.676;2023-07-22T01:10:13;11.80;;;7.65;;
24467;SDS011;12634;50.852;5.676;2023-07-22T01:12:40;10.60;;;7.43;;
24467;SDS011;12634;50.852;5.676;2023-07-22T01:15:08;10.88;;;7.40;;
24467;SDS011;12634;50.852;5.676;2023-07-22T01:17:36;13.45;;;7.40;;
24467;SDS011;12634;50.852;5.676;2023-07-22T01:20:06;13.13;;;7.65;;
24467;SDS011;12634;50.852;5.676;2023-07-22T01:22:34;14.48;;;8.07;;
24467;SDS011;12634;50.852;5.676;2023-07-22T01:25:04;10.98;;;8.35;;
24467;SDS011;12634;50.852;5.676;2023-07-22T01:27:33;11.07;;;7.38;;
24467;SDS011;12634;50.852;5.676;2023-07-22T01:30:00;10.50;;;7.63;;
24467;SDS011;12634;50.852;5.676;2023-07-22T01:32:28;13.05;;;8.52;;
24467;SDS011;12634;50.852;5.676;2023-07-22T01:34:56;11.13;;;7.90;;
24467;SDS011;12634;50.852;5.676;2023-07-22T01:37:23;12.35;;;8.23;;
24467;SDS011;12634;50.852;5.676;2023-07-22T01:39:51;12.15;;;8.82;;
24467;SDS011;12634;50.852;5.676;2023-07-22T01:42:19;11.93;;;8.48;;
24467;SDS011;12634;50.852;5.676;2023-07-22T01:44:46;12.10;;;8.77;;
24467;SDS011;12634;50.852;5.676;2023-07-22T01:47:14;10.50;;;7.57;;
24467;SDS011;12634;50.852;5.676;2023-07-22T01:49:41;12.35;;;8.43;;
24467;SDS011;12634;50.852;5.676;2023-07-22T01:52:08;13.77;;;9.05;;
24467;SDS011;12634;50.852;5.676;2023-07-22T01:54:35;14.32;;;8.93;;
24467;SDS011;12634;50.852;5.676;2023-07-22T01:57:03;12.70;;;8.43;;
24467;SDS011;12634;50.852;5.676;2023-07-22T01:59:32;13.90;;;8.85;;
24467;SDS011;12634;50.852;5.676;2023-07-22T02:01:59;11.13;;;7.90;;
24467;SDS011;12634;50.852;5.676;2023-07-22T02:04:26;13.60;;;8.05;;
24467;SDS011;12634;50.852;5.676;2023-07-22T02:06:53;12.82;;;8.07;;
24467;SDS011;12634;50.852;5.676;2023-07-22T02:09:20;11.35;;;8.05;;
24467;SDS011;12634;50.852;5.676;2023-07-22T02:11:48;12.85;;;8.73;;
24467;SDS011;12634;50.852;5.676;2023-07-22T02:14:15;13.77;;;7.80;;
24467;SDS011;12634;50.852;5.676;2023-07-22T02:16:43;9.95;;;7.38;;
24467;SDS011;12634;50.852;5.676;2023-07-22T02:19:11;10.52;;;7.15;;
24467;SDS011;12634;50.852;5.676;2023-07-22T02:21:38;11.85;;;7.70;;
24467;SDS011;12634;50.852;5.676;2023-07-22T02:24:05;11.23;;;7.68;;
24467;SDS011;12634;50.852;5.676;2023-07-22T02:26:32;10.80;;;7.38;;
24467;SDS011;12634;50.852;5.676;2023-07-22T02:28:59;9.50;;;7.22;;
24467;SDS011;12634;50.852;5.676;2023-07-22T02:31:26;13.63;;;7.63;;
24467;SDS011;12634;50.852;5.676;2023-07-22T02:33:55;10.65;;;6.90;;
24467;SDS011;12634;50.852;5.676;2023-07-22T02:36:23;11.35;;;7.72;;
24467;SDS011;12634;50.852;5.676;2023-07-22T02:38:50;9.48;;;6.85;;
24467;SDS011;12634;50.852;5.676;2023-07-22T02:41:17;10.57;;;7.20;;
24467;SDS011;12634;50.852;5.676;2023-07-22T02:43:44;10.30;;;7.03;;
24467;SDS011;12634;50.852;5.676;2023-07-22T02:46:12;10.00;;;6.63;;
24467;SDS011;12634;50.852;5.676;2023-07-22T02:48:39;9.35;;;6.90;;
24467;SDS011;12634;50.852;5.676;2023-07-22T02:51:07;12.30;;;7.35;;
24467;SDS011;12634;50.852;5.676;2023-07-22T02:53:35;9.30;;;6.95;;
24467;SDS011;12634;50.852;5.676;2023-07-22T02:56:03;9.85;;;6.65;;
24467;SDS011;12634;50.852;5.676;2023-07-22T02:58:32;12.85;;;6.82;;
24467;SDS011;12634;50.852;5.676;2023-07-22T03:00:59;12.27;;;6.72;;
24467;SDS011;12634;50.852;5.676;2023-07-22T03:03:26;8.88;;;6.30;;
24467;SDS011;12634;50.852;5.676;2023-07-22T03:05:54;10.75;;;7.10;;
24467;SDS011;12634;50.852;5.676;2023-07-22T03:08:24;11.35;;;7.38;;
24467;SDS011;12634;50.852;5.676;2023-07-22T03:10:51;11.85;;;6.85;;
24467;SDS011;12634;50.852;5.676;2023-07-22T03:13:18;9.05;;;6.50;;
24467;SDS011;12634;50.852;5.676;2023-07-22T03:15:45;10.80;;;7.47;;
24467;SDS011;12634;50.852;5.676;2023-07-22T03:18:13;9.63;;;7.05;;
24467;SDS011;12634;50.852;5.676;2023-07-22T03:20:40;20.13;;;7.25;;
24467;SDS011;12634;50.852;5.676;2023-07-22T03:23:07;10.13;;;6.78;;
24467;SDS011;12634;50.852;5.676;2023-07-22T03:25:36;11.00;;;6.90;;
24467;SDS011;12634;50.852;5.676;2023-07-22T03:28:04;10.45;;;6.75;;
24467;SDS011;12634;50.852;5.676;2023-07-22T03:30:32;12.80;;;7.05;;
24467;SDS011;12634;50.852;5.676;2023-07-22T03:33:00;10.85;;;7.15;;
24467;SDS011;12634;50.852;5.676;2023-07-22T03:35:27;13.73;;;6.32;;
24467;SDS011;12634;50.852;5.676;2023-07-22T03:37:55;10.90;;;6.78;;
24467;SDS011;12634;50.852;5.676;2023-07-22T03:40:22;9.10;;;6.95;;
24467;SDS011;12634;50.852;5.676;2023-07-22T03:42:54;12.40;;;6.80;;
24467;SDS011;12634;50.852;5.676;2023-07-22T03:45:22;10.93;;;7.53;;
24467;SDS011;12634;50.852;5.676;2023-07-22T03:47:50;11.00;;;6.70;;
24467;SDS011;12634;50.852;5.676;2023-07-22T03:50:19;9.75;;;7.30;;
24467;SDS011;12634;50.852;5.676;2023-07-22T03:52:46;14.13;;;6.97;;
24467;SDS011;12634;50.852;5.676;2023-07-22T03:55:13;8.85;;;6.88;;
24467;SDS011;12634;50.852;5.676;2023-07-22T03:57:40;14.55;;;6.78;;
24467;SDS011;12634;50.852;5.676;2023-07-22T04:00:09;9.00;;;6.95;;
24467;SDS011;12634;50.852;5.676;2023-07-22T04:02:38;9.77;;;6.70;;
24467;SDS011;12634;50.852;5.676;2023-07-22T04:05:05;10.63;;;6.93;;
24467;SDS011;12634;50.852;5.676;2023-07-22T04:07:33;11.02;;;7.22;;
24467;SDS011;12634;50.852;5.676;2023-07-22T04:10:00;10.48;;;7.45;;
24467;SDS011;12634;50.852;5.676;2023-07-22T04:12:28;10.70;;;6.65;;
24467;SDS011;12634;50.852;5.676;2023-07-22T04:14:56;10.00;;;6.95;;
24467;SDS011;12634;50.852;5.676;2023-07-22T04:17:24;10.43;;;6.32;;
24467;SDS011;12634;50.852;5.676;2023-07-22T04:19:52;10.68;;;7.60;;
24467;SDS011;12634;50.852;5.676;2023-07-22T04:22:19;11.70;;;7.38;;
24467;SDS011;12634;50.852;5.676;2023-07-22T04:24:47;7.43;;;6.20;;
24467;SDS011;12634;50.852;5.676;2023-07-22T04:27:14;10.10;;;6.75;;
24467;SDS011;12634;50.852;5.676;2023-07-22T04:29:42;11.93;;;7.45;;
24467;SDS011;12634;50.852;5.676;2023-07-22T04:32:09;9.30;;;6.45;;
24467;SDS011;12634;50.852;5.676;2023-07-22T04:34:38;8.55;;;6.32;;
24467;SDS011;12634;50.852;5.676;2023-07-22T04:37:05;10.18;;;6.63;;
24467;SDS011;12634;50.852;5.676;2023-07-22T04:39:33;8.27;;;5.95;;
24467;SDS011;12634;50.852;5.676;2023-07-22T04:42:00;9.43;;;6.95;;
24467;SDS011;12634;50.852;5.676;2023-07-22T04:44:27;12.00;;;7.30;;
24467;SDS011;12634;50.852;5.676;2023-07-22T04:46:55;10.50;;;6.90;;
24467;SDS011;12634;50.852;5.676;2023-07-22T04:49:22;9.65;;;6.85;;
24467;SDS011;12634;50.852;5.676;2023-07-22T04:51:50;9.38;;;7.20;;
24467;SDS011;12634;50.852;5.676;2023-07-22T04:54:18;11.55;;;7.20;;
24467;SDS011;12634;50.852;5.676;2023-07-22T04:56:45;9.68;;;7.10;;
24467;SDS011;12634;50.852;5.676;2023-07-22T04:59:12;16.35;;;7.75;;
24467;SDS011;12634;50.852;5.676;2023-07-22T05:01:40;9.25;;;7.20;;
24467;SDS011;12634;50.852;5.676;2023-07-22T05:04:08;10.82;;;6.90;;
24467;SDS011;12634;50.852;5.676;2023-07-22T05:06:35;8.77;;;6.75;;
24467;SDS011;12634;50.852;5.676;2023-07-22T05:09:04;8.80;;;6.78;;
24467;SDS011;12634;50.852;5.676;2023-07-22T05:11:31;10.13;;;7.25;;
24467;SDS011;12634;50.852;5.676;2023-07-22T05:13:58;10.65;;;6.95;;
24467;SDS011;12634;50.852;5.676;2023-07-22T05:16:26;9.95;;;6.55;;
24467;SDS011;12634;50.852;5.676;2023-07-22T05:18:53;9.85;;;6.88;;
24467;SDS011;12634;50.852;5.676;2023-07-22T05:21:20;11.40;;;7.28;;
24467;SDS011;12634;50.852;5.676;2023-07-22T05:23:47;13.15;;;7.03;;
24467;SDS011;12634;50.852;5.676;2023-07-22T05:26:16;9.93;;;6.68;;
24467;SDS011;12634;50.852;5.676;2023-07-22T05:28:43;9.65;;;7.18;;
24467;SDS011;12634;50.852;5.676;2023-07-22T05:31:10;10.00;;;7.18;;
24467;SDS011;12634;50.852;5.676;2023-07-22T05:33:37;9.70;;;6.93;;
24467;SDS011;12634;50.852;5.676;2023-07-22T05:36:05;10.30;;;6.80;;
24467;SDS011;12634;50.852;5.676;2023-07-22T05:38:32;9.85;;;6.93;;
24467;SDS011;12634;50.852;5.676;2023-07-22T05:40:59;11.45;;;6.90;;
24467;SDS011;12634;50.852;5.676;2023-07-22T05:43:28;11.73;;;6.68;;
24467;SDS011;12634;50.852;5.676;2023-07-22T05:45:55;12.38;;;6.72;;
24467;SDS011;12634;50.852;5.676;2023-07-22T05:48:22;10.90;;;6.40;;
24467;SDS011;12634;50.852;5.676;2023-07-22T05:50:49;10.65;;;6.68;;
24467;SDS011;12634;50.852;5.676;2023-07-22T05:53:17;10.27;;;7.07;;
24467;SDS011;12634;50.852;5.676;2023-07-22T05:55:44;11.73;;;7.75;;
24467;SDS011;12634;50.852;5.676;2023-07-22T05:58:15;9.98;;;7.38;;
24467;SDS011;12634;50.852;5.676;2023-07-22T06:00:45;9.27;;;7.53;;
24467;SDS011;12634;50.852;5.676;2023-07-22T06:03:12;11.93;;;7.45;;
24467;SDS011;12634;50.852;5.676;2023-07-22T06:05:39;9.45;;;6.72;;
24467;SDS011;12634;50.852;5.676;2023-07-22T06:08:06;10.52;;;7.18;;
24467;SDS011;12634;50.852;5.676;2023-07-22T06:10:34;9.15;;;7.15;;
24467;SDS011;12634;50.852;5.676;2023-07-22T06:13:03;10.57;;;7.00;;
24467;SDS011;12634;50.852;5.676;2023-07-22T06:15:30;11.48;;;7.28;;
24467;SDS011;12634;50.852;5.676;2023-07-22T06:17:59;10.30;;;7.45;;
24467;SDS011;12634;50.852;5.676;2023-07-22T06:20:26;11.30;;;6.75;;
24467;SDS011;12634;50.852;5.676;2023-07-22T06:22:53;9.85;;;6.70;;
24467;SDS011;12634;50.852;5.676;2023-07-22T06:25:21;11.07;;;7.03;;
24467;SDS011;12634;50.852;5.676;2023-07-22T06:27:48;9.63;;;6.78;;
24467;SDS011;12634;50.852;5.676;2023-07-22T06:30:15;10.20;;;7.25;;
24467;SDS011;12634;50.852;5.676;2023-07-22T06:32:42;9.55;;;7.13;;
24467;SDS011;12634;50.852;5.676;2023-07-22T06:35:11;10.77;;;6.95;;
24467;SDS011;12634;50.852;5.676;2023-07-22T06:37:38;9.27;;;6.82;;
24467;SDS011;12634;50.852;5.676;2023-07-22T06:40:05;9.05;;;6.78;;
24467;SDS011;12634;50.852;5.676;2023-07-22T06:42:33;9.63;;;6.60;;
24467;SDS011;12634;50.852;5.676;2023-07-22T06:45:01;11.32;;;7.10;;
24467;SDS011;12634;50.852;5.676;2023-07-22T06:47:28;11.93;;;7.28;;
24467;SDS011;12634;50.852;5.676;2023-07-22T06:49:55;9.80;;;6.45;;
24467;SDS011;12634;50.852;5.676;2023-07-22T06:52:24;10.40;;;6.88;;
24467;SDS011;12634;50.852;5.676;2023-07-22T06:54:51;9.45;;;6.35;;
24467;SDS011;12634;50.852;5.676;2023-07-22T06:57:18;13.43;;;7.35;;
24467;SDS011;12634;50.852;5.676;2023-07-22T06:59:45;10.90;;;6.95;;
24467;SDS011;12634;50.852;5.676;2023-07-22T07:02:12;10.60;;;6.57;;
24467;SDS011;12634;50.852;5.676;2023-07-22T07:04:39;11.23;;;7.15;;
24467;SDS011;12634;50.852;5.676;2023-07-22T07:07:07;11.50;;;7.32;;
24467;SDS011;12634;50.852;5.676;2023-07-22T07:09:36;10.25;;;6.07;;
24467;SDS011;12634;50.852;5.676;2023-07-22T07:12:03;10.90;;;6.45;;
24467;SDS011;12634;50.852;5.676;2023-07-22T07:14:32;11.57;;;6.53;;
24467;SDS011;12634;50.852;5.676;2023-07-22T07:16:59;13.40;;;7.78;;
24467;SDS011;12634;50.852;5.676;2023-07-22T07:19:27;11.38;;;6.88;;
24467;SDS011;12634;50.852;5.676;2023-07-22T07:21:54;12.43;;;7.38;;
24467;SDS011;12634;50.852;5.676;2023-07-22T07:24:21;9.10;;;6.38;;
24467;SDS011;12634;50.852;5.676;2023-07-22T07:26:50;13.15;;;6.68;;
24467;SDS011;12634;50.852;5.676;2023-07-22T07:29:17;14.82;;;6.50;;
24467;SDS011;12634;50.852;5.676;2023-07-22T07:31:44;13.85;;;6.55;;
24467;SDS011;12634;50.852;5.676;2023-07-22T07:34:11;11.23;;;6.40;;
24467;SDS011;12634;50.852;5.676;2023-07-22T07:36:39;14.07;;;6.63;;
24467;SDS011;12634;50.852;5.676;2023-07-22T07:39:06;13.45;;;6.93;;
24467;SDS011;12634;50.852;5.676;2023-07-22T07:41:33;14.05;;;6.50;;
24467;SDS011;12634;50.852;5.676;2023-07-22T07:44:04;13.52;;;6.00;;
24467;SDS011;12634;50.852;5.676;2023-07-22T07:46:32;14.10;;;6.65;;
24467;SDS011;12634;50.852;5.676;2023-07-22T07:49:00;13.55;;;6.80;;
24467;SDS011;12634;50.852;5.676;2023-07-22T07:51:28;10.68;;;6.90;;
24467;SDS011;12634;50.852;5.676;2023-07-22T07:53:57;12.70;;;6.32;;
24467;SDS011;12634;50.852;5.676;2023-07-22T07:56:25;12.02;;;6.65;;
24467;SDS011;12634;50.852;5.676;2023-07-22T07:58:52;14.15;;;6.43;;
24467;SDS011;12634;50.852;5.676;2023-07-22T08:01:21;9.57;;;5.70;;
24467;SDS011;12634;50.852;5.676;2023-07-22T08:03:48;9.20;;;5.88;;
24467;SDS011;12634;50.852;5.676;2023-07-22T08:06:16;10.13;;;6.47;;
24467;SDS011;12634;50.852;5.676;2023-07-22T08:08:43;11.10;;;6.43;;
24467;SDS011;12634;50.852;5.676;2023-07-22T08:11:11;9.38;;;5.45;;
24467;SDS011;12634;50.852;5.676;2023-07-22T08:13:39;13.82;;;5.90;;
24467;SDS011;12634;50.852;5.676;2023-07-22T08:16:08;8.00;;;4.95;;
24467;SDS011;12634;50.852;5.676;2023-07-22T08:18:37;10.45;;;5.75;;
24467;SDS011;12634;50.852;5.676;2023-07-22T08:21:05;8.38;;;4.95;;
24467;SDS011;12634;50.852;5.676;2023-07-22T08:23:33;7.30;;;4.47;;
24467;SDS011;12634;50.852;5.676;2023-07-22T08:26:01;9.38;;;4.30;;
24467;SDS011;12634;50.852;5.676;2023-07-22T08:28:30;6.65;;;3.45;;
24467;SDS011;12634;50.852;5.676;2023-07-22T08:30:57;6.47;;;3.05;;
24467;SDS011;12634;50.852;5.676;2023-07-22T08:33:25;5.53;;;2.97;;
24467;SDS011;12634;50.852;5.676;2023-07-22T08:35:54;8.00;;;3.10;;
24467;SDS011;12634;50.852;5.676;2023-07-22T08:38:21;6.38;;;3.63;;
24467;SDS011;12634;50.852;5.676;2023-07-22T08:40:49;8.05;;;2.85;;
24467;SDS011;12634;50.852;5.676;2023-07-22T08:43:18;5.20;;;2.67;;
24467;SDS011;12634;50.852;5.676;2023-07-22T08:45:47;5.38;;;2.83;;
24467;SDS011;12634;50.852;5.676;2023-07-22T08:48:16;5.65;;;3.50;;
24467;SDS011;12634;50.852;5.676;2023-07-22T08:50:45;5.68;;;2.80;;
24467;SDS011;12634;50.852;5.676;2023-07-22T08:53:17;9.00;;;3.10;;
24467;SDS011;12634;50.852;5.676;2023-07-22T08:55:45;6.40;;;3.38;;
24467;SDS011;12634;50.852;5.676;2023-07-22T08:58:14;5.18;;;3.03;;
24467;SDS011;12634;50.852;5.676;2023-07-22T09:00:41;5.75;;;3.25;;
24467;SDS011;12634;50.852;5.676;2023-07-22T09:03:09;6.00;;;3.20;;
24467;SDS011;12634;50.852;5.676;2023-07-22T09:05:37;9.10;;;3.63;;
24467;SDS011;12634;50.852;5.676;2023-07-22T09:08:06;5.70;;;2.60;;
24467;SDS011;12634;50.852;5.676;2023-07-22T09:10:35;8.02;;;2.58;;
24467;SDS011;12634;50.852;5.676;2023-07-22T09:13:03;4.53;;;2.30;;
24467;SDS011;12634;50.852;5.676;2023-07-22T09:15:32;4.07;;;2.38;;
24467;SDS011;12634;50.852;5.676;2023-07-22T09:18:02;7.38;;;3.05;;
24467;SDS011;12634;50.852;5.676;2023-07-22T09:20:29;6.10;;;2.30;;
24467;SDS011;12634;50.852;5.676;2023-07-22T09:22:57;5.70;;;2.53;;
24467;SDS011;12634;50.852;5.676;2023-07-22T09:25:26;4.55;;;2.30;;
24467;SDS011;12634;50.852;5.676;2023-07-22T09:27:57;4.28;;;2.38;;
24467;SDS011;12634;50.852;5.676;2023-07-22T09:30:26;3.63;;;1.98;;
24467;SDS011;12634;50.852;5.676;2023-07-22T09:32:55;5.93;;;2.70;;
24467;SDS011;12634;50.852;5.676;2023-07-22T09:35:24;5.15;;;2.70;;
24467;SDS011;12634;50.852;5.676;2023-07-22T09:37:54;4.32;;;2.35;;
24467;SDS011;12634;50.852;5.676;2023-07-22T09:40:22;3.63;;;2.00;;
24467;SDS011;12634;50.852;5.676;2023-07-22T09:42:51;3.95;;;2.38;;
24467;SDS011;12634;50.852;5.676;2023-07-22T09:45:21;4.50;;;2.10;;
24467;SDS011;12634;50.852;5.676;2023-07-22T09:47:50;3.90;;;1.90;;
24467;SDS011;12634;50.852;5.676;2023-07-22T09:50:19;4.82;;;1.77;;
24467;SDS011;12634;50.852;5.676;2023-07-22T09:52:48;3.70;;;1.77;;
24467;SDS011;12634;50.852;5.676;2023-07-22T09:55:16;3.53;;;1.73;;
24467;SDS011;12634;50.852;5.676;2023-07-22T09:57:45;3.88;;;2.05;;
24467;SDS011;12634;50.852;5.676;2023-07-22T10:00:14;2.92;;;1.88;;
24467;SDS011;12634;50.852;5.676;2023-07-22T10:02:46;4.18;;;2.35;;
24467;SDS011;12634;50.852;5.676;2023-07-22T10:05:16;3.08;;;2.00;;
24467;SDS011;12634;50.852;5.676;2023-07-22T10:07:44;3.78;;;2.10;;
24467;SDS011;12634;50.852;5.676;2023-07-22T10:10:13;3.45;;;1.90;;
24467;SDS011;12634;50.852;5.676;2023-07-22T10:12:42;4.47;;;2.10;;
24467;SDS011;12634;50.852;5.676;2023-07-22T10:15:10;3.75;;;1.80;;
24467;SDS011;12634;50.852;5.676;2023-07-22T10:17:39;3.30;;;1.60;;
24467;SDS011;12634;50.852;5.676;2023-07-22T10:20:09;4.55;;;1.88;;
24467;SDS011;12634;50.852;5.676;2023-07-22T10:22:41;6.65;;;2.35;;
24467;SDS011;12634;50.852;5.676;2023-07-22T10:25:10;3.25;;;1.55;;
24467;SDS011;12634;50.852;5.676;2023-07-22T10:27:38;3.90;;;2.10;;
24467;SDS011;12634;50.852;5.676;2023-07-22T10:30:08;3.58;;;2.00;;
24467;SDS011;12634;50.852;5.676;2023-07-22T10:32:36;4.07;;;1.80;;
24467;SDS011;12634;50.852;5.676;2023-07-22T10:35:09;5.13;;;2.25;;
24467;SDS011;12634;50.852;5.676;2023-07-22T10:37:38;4.78;;;2.50;;
24467;SDS011;12634;50.852;5.676;2023-07-22T10:40:19;6.72;;;3.03;;
24467;SDS011;12634;50.852;5.676;2023-07-22T10:42:53;3.90;;;2.40;;
24467;SDS011;12634;50.852;5.676;2023-07-22T10:45:23;3.78;;;1.98;;
24467;SDS011;12634;50.852;5.676;2023-07-22T10:48:02;3.75;;;2.10;;
24467;SDS011;12634;50.852;5.676;2023-07-22T10:50:40;4.63;;;1.90;;
24467;SDS011;12634;50.852;5.676;2023-07-22T10:53:11;3.58;;;1.92;;
24467;SDS011;12634;50.852;5.676;2023-07-22T10:58:33;4.70;;;2.38;;
24467;SDS011;12634;50.852;5.676;2023-07-22T11:01:21;3.22;;;1.83;;
24467;SDS011;12634;50.852;5.676;2023-07-22T11:06:58;2.58;;;1.70;;
24467;SDS011;12634;50.852;5.676;2023-07-22T11:09:33;2.70;;;1.77;;
24467;SDS011;12634;50.852;5.676;2023-07-22T11:12:07;8.38;;;2.22;;
24467;SDS011;12634;50.852;5.676;2023-07-22T11:14:38;3.80;;;2.00;;
24467;SDS011;12634;50.852;5.676;2023-07-22T11:17:07;4.15;;;2.13;;
24467;SDS011;12634;50.852;5.676;2023-07-22T11:19:34;4.18;;;2.20;;
24467;SDS011;12634;50.852;5.676;2023-07-22T11:22:03;4.25;;;1.70;;
24467;SDS011;12634;50.852;5.676;2023-07-22T11:24:32;4.18;;;1.80;;
24467;SDS011;12634;50.852;5.676;2023-07-22T11:27:02;2.92;;;1.60;;
24467;SDS011;12634;50.852;5.676;2023-07-22T11:29:30;3.35;;;1.70;;
24467;SDS011;12634;50.852;5.676;2023-07-22T11:31:58;3.88;;;2.03;;
24467;SDS011;12634;50.852;5.676;2023-07-22T11:34:25;3.47;;;1.95;;
24467;SDS011;12634;50.852;5.676;2023-07-22T11:36:53;6.35;;;2.00;;
24467;SDS011;12634;50.852;5.676;2023-07-22T11:39:23;3.15;;;1.90;;
24467;SDS011;12634;50.852;5.676;2023-07-22T11:41:51;2.38;;;1.67;;
24467;SDS011;12634;50.852;5.676;2023-07-22T11:44:19;3.35;;;1.73;;
24467;SDS011;12634;50.852;5.676;2023-07-22T11:46:52;3.88;;;2.15;;
24467;SDS011;12634;50.852;5.676;2023-07-22T11:49:23;5.83;;;2.43;;
24467;SDS011;12634;50.852;5.676;2023-07-22T11:51:54;4.03;;;2.20;;
24467;SDS011;12634;50.852;5.676;2023-07-22T11:54:23;3.65;;;1.80;;
24467;SDS011;12634;50.852;5.676;2023-07-22T11:56:51;3.90;;;1.83;;
24467;SDS011;12634;50.852;5.676;2023-07-22T11:59:31;4.15;;;1.80;;
24467;SDS011;12634;50.852;5.676;2023-07-22T12:02:03;4.00;;;1.67;;
24467;SDS011;12634;50.852;5.676;2023-07-22T12:04:31;5.18;;;1.80;;
24467;SDS011;12634;50.852;5.676;2023-07-22T12:06:59;3.28;;;1.90;;
24467;SDS011;12634;50.852;5.676;2023-07-22T12:09:28;3.38;;;2.00;;
24467;SDS011;12634;50.852;5.676;2023-07-22T12:11:55;4.30;;;2.20;;
24467;SDS011;12634;50.852;5.676;2023-07-22T12:14:24;3.33;;;1.70;;
24467;SDS011;12634;50.852;5.676;2023-07-22T12:16:59;5.97;;;1.52;;
24467;SDS011;12634;50.852;5.676;2023-07-22T12:19:27;2.97;;;1.70;;
24467;SDS011;12634;50.852;5.676;2023-07-22T12:21:55;3.08;;;1.88;;
24467;SDS011;12634;50.852;5.676;2023-07-22T12:24:22;4.30;;;1.88;;
24467;SDS011;12634;50.852;5.676;2023-07-22T12:26:51;4.45;;;1.95;;
24467;SDS011;12634;50.852;5.676;2023-07-22T12:29:18;3.22;;;1.80;;
24467;SDS011;12634;50.852;5.676;2023-07-22T12:31:47;4.65;;;1.90;;
24467;SDS011;12634;50.852;5.676;2023-07-22T12:34:14;3.63;;;1.52;;
24467;SDS011;12634;50.852;5.676;2023-07-22T12:36:41;4.72;;;1.50;;
24467;SDS011;12634;50.852;5.676;2023-07-22T12:39:08;2.58;;;1.50;;
24467;SDS011;12634;50.852;5.676;2023-07-22T12:41:37;5.25;;;1.70;;
24467;SDS011;12634;50.852;5.676;2023-07-22T12:44:06;3.65;;;1.50;;
24467;SDS011;12634;50.852;5.676;2023-07-22T12:46:33;4.07;;;2.00;;
24467;SDS011;12634;50.852;5.676;2023-07-22T12:49:00;2.10;;;1.35;;
24467;SDS011;12634;50.852;5.676;2023-07-22T12:51:27;3.30;;;1.45;;
24467;SDS011;12634;50.852;5.676;2023-07-22T12:53:54;3.53;;;1.45;;
24467;SDS011;12634;50.852;5.676;2023-07-22T12:56:22;7.25;;;1.85;;
24467;SDS011;12634;50.852;5.676;2023-07-22T12:58:49;1.92;;;1.20;;
24467;SDS011;12634;50.852;5.676;2023-07-22T13:01:17;4.00;;;1.65;;
24467;SDS011;12634;50.852;5.676;2023-07-22T13:03:45;2.58;;;1.38;;
24467;SDS011;12634;50.852;5.676;2023-07-22T13:06:12;3.25;;;1.50;;
24467;SDS011;12634;50.852;5.676;2023-07-22T13:08:39;2.67;;;1.50;;
24467;SDS011;12634;50.852;5.676;2023-07-22T13:11:06;3.47;;;1.50;;
24467;SDS011;12634;50.852;5.676;2023-07-22T13:13:33;3.42;;;1.42;;
24467;SDS011;12634;50.852;5.676;2023-07-22T13:16:00;5.88;;;1.50;;
24467;SDS011;12634;50.852;5.676;2023-07-22T13:18:29;2.63;;;1.20;;
24467;SDS011;12634;50.852;5.676;2023-07-22T13:20:56;2.33;;;1.10;;
24467;SDS011;12634;50.852;5.676;2023-07-22T13:23:23;2.83;;;1.15;;
24467;SDS011;12634;50.852;5.676;2023-07-22T13:25:50;2.70;;;1.48;;
24467;SDS011;12634;50.852;5.676;2023-07-22T13:28:18;3.58;;;1.20;;
24467;SDS011;12634;50.852;5.676;2023-07-22T13:30:45;4.68;;;1.50;;
24467;SDS011;12634;50.852;5.676;2023-07-22T13:33:12;4.00;;;1.15;;
24467;SDS011;12634;50.852;5.676;2023-07-22T13:35:41;2.67;;;1.35;;
24467;SDS011;12634;50.852;5.676;2023-07-22T13:38:08;2.50;;;1.30;;
24467;SDS011;12634;50.852;5.676;2023-07-22T13:40:35;2.65;;;1.60;;
24467;SDS011;12634;50.852;5.676;2023-07-22T13:43:02;4.85;;;1.42;;
24467;SDS011;12634;50.852;5.676;2023-07-22T13:45:29;2.17;;;1.30;;
24467;SDS011;12634;50.852;5.676;2023-07-22T13:47:58;3.45;;;1.13;;
24467;SDS011;12634;50.852;5.676;2023-07-22T13:50:25;3.35;;;1.33;;
24467;SDS011;12634;50.852;5.676;2023-07-22T13:52:54;1.73;;;0.90;;
24467;SDS011;12634;50.852;5.676;2023-07-22T13:55:21;4.10;;;1.70;;
24467;SDS011;12634;50.852;5.676;2023-07-22T13:57:48;5.18;;;1.70;;
24467;SDS011;12634;50.852;5.676;2023-07-22T14:00:15;3.15;;;1.65;;
24467;SDS011;12634;50.852;5.676;2023-07-22T14:02:43;4.28;;;1.52;;
24467;SDS011;12634;50.852;5.676;2023-07-22T14:05:10;2.67;;;1.30;;
24467;SDS011;12634;50.852;5.676;2023-07-22T14:07:38;3.88;;;1.50;;
24467;SDS011;12634;50.852;5.676;2023-07-22T14:10:07;7.45;;;2.40;;
24467;SDS011;12634;50.852;5.676;2023-07-22T14:12:35;6.22;;;1.70;;
24467;SDS011;12634;50.852;5.676;2023-07-22T14:15:02;5.13;;;1.73;;
24467;SDS011;12634;50.852;5.676;2023-07-22T14:17:31;6.43;;;1.90;;
24467;SDS011;12634;50.852;5.676;2023-07-22T14:19:58;3.25;;;1.45;;
24467;SDS011;12634;50.852;5.676;2023-07-22T14:22:26;5.43;;;2.40;;
24467;SDS011;12634;50.852;5.676;2023-07-22T14:24:53;3.20;;;1.70;;
24467;SDS011;12634;50.852;5.676;2023-07-22T14:27:21;4.38;;;1.80;;
24467;SDS011;12634;50.852;5.676;2023-07-22T14:29:49;3.42;;;1.90;;
24467;SDS011;12634;50.852;5.676;2023-07-22T14:32:16;5.00;;;2.00;;
24467;SDS011;12634;50.852;5.676;2023-07-22T14:34:43;4.70;;;1.88;;
24467;SDS011;12634;50.852;5.676;2023-07-22T14:37:10;4.13;;;1.88;;
24467;SDS011;12634;50.852;5.676;2023-07-22T14:39:37;5.85;;;1.67;;
24467;SDS011;12634;50.852;5.676;2023-07-22T14:42:05;5.20;;;1.95;;
24467;SDS011;12634;50.852;5.676;2023-07-22T14:44:34;3.05;;;1.70;;
24467;SDS011;12634;50.852;5.676;2023-07-22T14:47:01;3.67;;;1.65;;
24467;SDS011;12634;50.852;5.676;2023-07-22T14:49:29;5.70;;;2.33;;
24467;SDS011;12634;50.852;5.676;2023-07-22T14:51:56;6.47;;;2.42;;
24467;SDS011;12634;50.852;5.676;2023-07-22T14:54:24;2.53;;;1.45;;